Time;durP1;ratioP1;P1;durP2;ratioP2;P2;SDS_P1;SDS_P2;PMS_P1;PMS_P2;Temp;Humidity;BMP_temperature;BMP_pressure;BME280_temperature;BME280_humidity;BME280_pressure;Samples;Min_cycle;Max_cycle;Signal;HPM_P1;HPM_P2
2022/05/12 09:02:30;;;;;;;4.40;2.10;;;24.50;91.80;;;;;;3318102;26;20219;-71
2022/05/12 09:05:04;;;;;;;5.50;1.75;;;24.40;92.20;;;;;;4957023;28;20214;-73
2022/05/12 09:07:36;;;;;;;4.00;1.85;;;23.60;92.50;;;;;;4948600;28;20232;-70
2022/05/12 09:10:33;;;;;;;5.70;2.35;;;23.80;92.60;;;;;;4938199;29;20235;-72
2022/05/12 09:13:03;;;;;;;5.13;2.30;;;23.50;93.10;;;;;;4937432;29;20219;-73
2022/05/12 09:15:32;;;;;;;5.40;2.10;;;23.50;92.10;;;;;;4937638;29;20227;-71
2022/05/12 09:18:02;;;;;;;3.67;2.58;;;23.60;93.40;;;;;;4950875;29;20231;-69
2022/05/12 09:20:33;;;;;;;2.88;1.98;;;24.00;92.70;;;;;;4956609;28;20208;-71
2022/05/12 09:23:01;;;;;;;4.88;2.10;;;24.20;91.70;;;;;;4956642;29;20310;-70
2022/05/12 09:25:34;;;;;;;5.30;2.55;;;24.50;91.70;;;;;;4956701;29;20242;-69
2022/05/12 09:28:19;;;;;;;5.05;2.22;;;23.40;92.10;;;;;;4956008;28;20235;-72
2022/05/12 09:30:48;;;;;;;4.53;2.42;;;22.90;93.80;;;;;;4956312;29;20208;-71
2022/05/12 09:33:26;;;;;;;6.22;2.58;;;22.40;93.00;;;;;;4956709;29;20216;-71
2022/05/12 09:35:57;;;;;;;5.03;2.38;;;22.50;93.60;;;;;;4956398;28;20208;-69
2022/05/12 09:38:26;;;;;;;4.72;2.65;;;22.60;93.40;;;;;;4955931;28;20563;-71
2022/05/12 09:40:53;;;;;;;6.82;3.03;;;22.90;92.60;;;;;;4956556;29;20212;-71
2022/05/12 09:43:26;;;;;;;6.47;2.97;;;23.50;92.50;;;;;;4956018;29;20215;-72
2022/05/12 09:46:06;;;;;;;6.05;2.40;;;23.60;92.50;;;;;;4956284;28;20228;-71
2022/05/12 09:48:35;;;;;;;5.95;2.88;;;23.80;92.70;;;;;;4956075;29;20588;-72
2022/05/12 09:51:29;;;;;;;4.95;2.65;;;23.50;91.50;;;;;;4956661;29;20208;-72
2022/05/12 09:54:16;;;;;;;5.00;2.75;;;23.50;91.70;;;;;;4957012;28;20216;-70
2022/05/12 09:56:46;;;;;;;6.82;3.90;;;23.30;91.00;;;;;;4956350;29;20204;-68
2022/05/12 09:59:24;;;;;;;6.90;3.20;;;23.00;91.90;;;;;;4956185;28;20223;-70
2022/05/12 10:01:54;;;;;;;4.68;2.10;;;23.30;92.10;;;;;;4956336;29;20222;-72
2022/05/12 10:10:11;;;;;;;4.65;2.53;;;22.60;91.00;;;;;;4956447;29;20207;-70
2022/05/12 10:12:44;;;;;;;3.83;2.42;;;22.60;91.50;;;;;;4956445;28;20215;-73
2022/05/12 10:15:19;;;;;;;4.68;2.25;;;22.70;90.90;;;;;;4955525;28;20212;-73
2022/05/12 10:17:48;;;;;;;4.18;1.95;;;22.80;90.80;;;;;;4955879;29;20714;-72
2022/05/12 10:20:19;;;;;;;2.70;2.00;;;22.90;90.20;;;;;;4937543;29;20577;-71
2022/05/12 10:22:54;;;;;;;2.85;1.80;;;22.60;90.80;;;;;;4934612;29;20204;-70
2022/05/12 10:25:47;;;;;;;2.95;2.13;;;22.20;90.90;;;;;;4936710;29;20557;-70
2022/05/12 10:28:21;;;;;;;8.63;2.80;;;22.10;92.00;;;;;;4951563;29;20761;-71
2022/05/12 10:30:56;;;;;;;4.25;1.77;;;21.90;91.70;;;;;;4956042;29;20208;-71
2022/05/12 10:33:37;;;;;;;3.38;1.50;;;21.80;90.60;;;;;;4955797;29;20210;-67
2022/05/12 10:36:22;;;;;;;3.10;1.25;;;21.70;90.50;;;;;;4949675;29;20641;-68
2022/05/12 10:38:58;;;;;;;3.97;1.23;;;21.70;90.00;;;;;;4936342;29;20719;-73
2022/05/12 10:41:33;;;;;;;3.38;1.17;;;21.90;90.00;;;;;;4936827;29;20212;-69
2022/05/12 10:44:16;;;;;;;1.98;1.02;;;21.90;89.50;;;;;;4936157;29;20208;-70
2022/05/12 10:46:51;;;;;;;4.72;1.08;;;22.00;88.80;;;;;;4939674;29;20274;-70
2022/05/12 10:49:23;;;;;;;2.47;1.00;;;22.40;90.50;;;;;;4955742;29;20570;-66
2022/05/12 10:52:08;;;;;;;3.42;0.90;;;22.50;90.50;;;;;;4955158;29;20212;-69
2022/05/12 10:54:40;;;;;;;2.70;0.90;;;22.30;90.50;;;;;;4955666;29;20557;-71
2022/05/12 10:57:25;;;;;;;3.17;1.20;;;22.30;91.00;;;;;;4955280;29;20215;-76
2022/05/12 11:00:13;;;;;;;2.63;1.00;;;22.50;90.30;;;;;;4955310;29;20230;-71
2022/05/12 11:02:42;;;;;;;3.58;1.20;;;22.60;90.40;;;;;;4955270;29;20726;-71
2022/05/12 11:05:26;;;;;;;1.55;1.00;;;22.30;91.40;;;;;;4954794;29;20687;-76
2022/05/12 11:08:04;;;;;;;1.85;1.17;;;22.50;91.40;;;;;;4955254;29;20324;-73
2022/05/12 11:10:35;;;;;;;3.72;1.17;;;22.40;90.20;;;;;;4955307;29;20212;-78
2022/05/12 11:13:12;;;;;;;3.85;0.90;;;22.10;90.90;;;;;;4954497;29;20678;-72
2022/05/12 11:15:48;;;;;;;1.92;1.17;;;22.20;90.40;;;;;;4955142;29;20237;-69
2022/05/12 11:18:21;;;;;;;3.58;1.08;;;22.40;88.50;;;;;;4954895;29;20231;-72
2022/05/12 11:20:56;;;;;;;3.80;1.02;;;22.70;87.60;;;;;;4954614;29;20211;-69
2022/05/12 11:23:38;;;;;;;2.60;1.23;;;22.70;87.90;;;;;;4955745;29;20235;-70
2022/05/12 11:26:12;;;;;;;1.90;0.95;;;22.50;90.00;;;;;;4954900;29;20231;-73
2022/05/12 11:31:37;;;;;;;1.73;1.00;;;22.30;89.70;;;;;;4954992;29;20734;-72
2022/05/12 11:34:08;;;;;;;1.75;0.90;;;22.50;90.90;;;;;;4955293;29;20223;-71
2022/05/12 11:36:40;;;;;;;3.58;1.30;;;22.70;90.10;;;;;;4954802;29;20211;-72
2022/05/12 11:39:29;;;;;;;3.33;1.10;;;22.60;89.10;;;;;;4954888;29;20235;-74
2022/05/12 11:42:11;;;;;;;3.25;1.17;;;22.50;90.10;;;;;;4954301;28;20208;-67
2022/05/12 11:44:47;;;;;;;2.08;1.30;;;22.60;89.70;;;;;;4954736;29;20208;-71
2022/05/12 11:47:45;;;;;;;3.25;1.33;;;22.50;89.90;;;;;;4954600;29;20606;-68
2022/05/12 11:50:39;;;;;;;1.88;1.20;;;22.40;90.70;;;;;;4954022;29;20212;-73
2022/05/12 11:53:14;;;;;;;1.98;1.00;;;22.80;88.10;;;;;;4954005;29;20215;-68
2022/05/12 11:56:01;;;;;;;4.18;1.50;;;22.70;87.90;;;;;;4954301;29;20443;-75
2022/05/12 11:58:40;;;;;;;1.40;0.95;;;22.50;88.90;;;;;;4953683;28;20368;-67
2022/05/12 12:01:10;;;;;;;4.13;1.10;;;22.60;89.50;;;;;;4954271;28;20220;-68
2022/05/12 12:03:53;;;;;;;3.40;1.27;;;22.40;90.60;;;;;;4954296;29;20204;-68
2022/05/12 12:06:38;;;;;;;2.47;1.13;;;22.10;90.20;;;;;;4951568;28;20234;-67
2022/05/12 12:09:31;;;;;;;2.63;1.00;;;22.30;90.60;;;;;;4953890;29;20603;-75
2022/05/12 12:11:59;;;;;;;3.80;1.10;;;22.70;89.80;;;;;;4953851;28;20299;-74
2022/05/12 12:14:59;;;;;;;1.60;0.88;;;23.10;89.10;;;;;;4954478;28;20208;-67
2022/05/12 12:17:35;;;;;;;2.22;0.80;;;23.20;88.00;;;;;;4953818;28;20231;-75
2022/05/12 12:20:09;;;;;;;3.65;1.00;;;23.50;88.50;;;;;;4953860;29;20215;-72
2022/05/12 12:22:45;;;;;;;3.05;1.25;;;23.70;89.10;;;;;;4954086;29;20204;-72
2022/05/12 12:25:31;;;;;;;2.72;0.90;;;23.30;89.00;;;;;;4954125;29;20214;-70
2022/05/12 12:28:12;;;;;;;2.60;0.80;;;23.10;88.10;;;;;;4953672;29;20239;-69
2022/05/12 12:31:05;;;;;;;2.08;0.98;;;23.20;90.10;;;;;;4953979;29;20211;-69
2022/05/12 12:34:01;;;;;;;1.95;0.93;;;23.00;90.10;;;;;;4954345;29;20208;-69
2022/05/12 12:37:05;;;;;;;2.47;0.85;;;23.00;90.20;;;;;;4953459;29;20212;-70
2022/05/12 12:39:53;;;;;;;3.42;0.70;;;23.00;89.20;;;;;;4949239;28;20212;-74
2022/05/12 12:42:39;;;;;;;1.92;1.00;;;23.00;89.80;;;;;;4953644;29;20235;-68
2022/05/12 12:45:11;;;;;;;2.83;0.85;;;22.90;89.70;;;;;;4953920;29;20298;-71
2022/05/12 12:47:47;;;;;;;2.50;0.85;;;22.90;89.10;;;;;;4953467;29;20243;-70
2022/05/12 12:50:41;;;;;;;1.00;0.77;;;23.20;89.50;;;;;;4953449;29;20207;-68
2022/05/12 12:53:12;;;;;;;13.32;1.23;;;23.20;88.40;;;;;;4953769;28;20218;-71
2022/05/12 12:58:36;;;;;;;3.55;0.60;;;23.40;87.20;;;;;;4953543;29;20371;-71
2022/05/12 13:01:11;;;;;;;3.60;0.60;;;23.40;86.90;;;;;;4953514;29;20570;-69
2022/05/12 13:03:39;;;;;;;1.10;0.50;;;23.50;88.80;;;;;;4953187;29;20241;-72
2022/05/12 13:06:09;;;;;;;5.65;0.82;;;23.50;86.00;;;;;;4953401;29;20622;-69
2022/05/12 13:08:36;;;;;;;2.47;1.05;;;23.30;87.50;;;;;;4953216;29;20236;-71
2022/05/12 13:11:05;;;;;;;1.48;0.90;;;23.20;87.00;;;;;;4949970;29;20216;-71
2022/05/12 13:13:32;;;;;;;3.58;1.00;;;23.00;87.00;;;;;;4953814;29;20216;-69
2022/05/12 13:16:02;;;;;;;1.63;0.73;;;23.10;88.50;;;;;;4953559;29;20753;-70
2022/05/12 13:18:33;;;;;;;1.48;0.80;;;23.20;88.40;;;;;;4952316;29;20230;-69
2022/05/12 13:21:01;;;;;;;0.75;0.50;;;23.40;88.30;;;;;;4953744;29;20671;-70
2022/05/12 13:23:30;;;;;;;6.03;0.63;;;23.80;86.90;;;;;;4953457;29;20208;-69
2022/05/12 13:26:00;;;;;;;4.07;0.90;;;23.50;85.40;;;;;;4952895;29;20211;-71
2022/05/12 13:28:28;;;;;;;2.55;0.52;;;23.40;88.10;;;;;;4953293;29;20250;-70
2022/05/12 13:31:13;;;;;;;2.72;0.82;;;23.30;87.10;;;;;;4953763;29;20234;-68
2022/05/12 13:33:55;;;;;;;4.13;0.80;;;23.30;85.80;;;;;;4953143;28;20630;-71
2022/05/12 13:36:24;;;;;;;3.80;0.80;;;23.30;85.40;;;;;;4953865;29;20215;-72
2022/05/12 13:38:52;;;;;;;1.55;0.70;;;23.30;86.00;;;;;;4954914;28;20287;-73
2022/05/12 13:41:26;;;;;;;0.88;0.40;;;23.20;86.90;;;;;;4954718;29;20208;-72
2022/05/12 13:44:00;;;;;;;1.52;0.60;;;23.30;87.30;;;;;;4954658;29;20215;-72
2022/05/12 13:46:27;;;;;;;3.50;0.88;;;23.30;86.80;;;;;;4954648;29;20215;-75
2022/05/12 13:48:58;;;;;;;4.25;0.70;;;23.20;87.40;;;;;;4954603;29;20239;-69
2022/05/12 13:51:43;;;;;;;2.20;0.50;;;23.00;86.60;;;;;;4956922;28;20211;-70
2022/05/12 13:54:21;;;;;;;4.78;1.52;;;23.20;87.70;;;;;;4958152;29;20208;-68
2022/05/12 13:56:48;;;;;;;3.03;0.70;;;22.80;87.00;;;;;;4957902;29;20690;-68
2022/05/12 13:59:22;;;;;;;2.55;0.73;;;22.90;87.70;;;;;;4957796;29;20647;-68
2022/05/12 14:01:50;;;;;;;3.35;0.85;;;22.80;88.50;;;;;;4957665;29;20223;-68
2022/05/12 14:04:22;;;;;;;2.75;0.47;;;22.90;88.90;;;;;;4957580;29;20642;-69
2022/05/12 14:06:54;;;;;;;2.05;0.70;;;23.20;88.00;;;;;;4957742;29;20232;-75
2022/05/12 14:09:24;;;;;;;2.75;0.60;;;23.40;86.60;;;;;;4957304;29;20212;-74
2022/05/12 14:12:04;;;;;;;2.00;0.63;;;23.50;86.90;;;;;;4957644;29;20216;-69
2022/05/12 14:20:12;;;;;;;2.08;0.68;;;22.90;86.80;;;;;;4957279;29;20247;-70
2022/05/12 14:22:39;;;;;;;1.05;0.52;;;23.20;89.00;;;;;;4957421;28;20687;-72
2022/05/12 14:25:09;;;;;;;1.70;0.50;;;23.20;88.40;;;;;;4957263;29;20215;-72
2022/05/12 14:27:36;;;;;;;1.65;0.50;;;23.20;87.90;;;;;;4957028;29;20246;-72
2022/05/12 14:30:04;;;;;;;1.73;0.43;;;23.40;89.60;;;;;;4957019;29;20220;-72
2022/05/12 14:32:38;;;;;;;2.28;0.40;;;23.50;88.30;;;;;;4957038;29;20208;-72
2022/05/12 14:35:07;;;;;;;2.33;0.60;;;23.40;87.10;;;;;;4956964;29;20219;-71
2022/05/12 14:37:36;;;;;;;1.25;0.60;;;23.30;88.00;;;;;;4956982;28;20741;-71
2022/05/12 14:40:03;;;;;;;1.02;0.60;;;23.20;89.40;;;;;;4956712;29;20211;-71
2022/05/12 14:42:30;;;;;;;4.25;0.60;;;22.90;88.40;;;;;;4957155;29;20215;-72
2022/05/12 14:44:57;;;;;;;1.02;0.43;;;22.90;88.70;;;;;;4956467;29;20208;-72
2022/05/12 14:47:28;;;;;;;3.22;0.70;;;22.70;90.30;;;;;;4956814;29;20251;-71
2022/05/12 14:49:55;;;;;;;2.10;0.63;;;22.60;89.00;;;;;;4957107;28;20212;-72
2022/05/12 14:52:24;;;;;;;2.20;0.50;;;22.70;88.90;;;;;;4956846;29;20208;-72
2022/05/12 14:54:53;;;;;;;2.72;0.93;;;22.60;90.30;;;;;;4956992;29;20250;-71
2022/05/12 14:57:22;;;;;;;1.27;0.50;;;22.50;88.80;;;;;;4957321;29;20232;-72
2022/05/12 14:59:48;;;;;;;1.73;0.60;;;22.60;90.40;;;;;;4956667;29;20566;-72
2022/05/12 15:02:18;;;;;;;2.13;0.57;;;22.60;89.20;;;;;;4955560;28;20216;-72
2022/05/12 15:04:46;;;;;;;1.90;0.40;;;22.70;89.40;;;;;;4956742;29;20663;-72
2022/05/12 15:07:13;;;;;;;0.50;0.32;;;22.80;88.60;;;;;;4956552;29;20243;-72
2022/05/12 15:09:41;;;;;;;2.55;0.60;;;22.60;89.10;;;;;;4956776;29;20211;-71
2022/05/12 15:12:10;;;;;;;0.60;0.35;;;22.60;89.80;;;;;;4956699;29;20212;-72
2022/05/12 15:14:37;;;;;;;0.90;0.50;;;22.50;88.50;;;;;;4956748;29;20204;-72
2022/05/12 15:17:04;;;;;;;1.20;0.50;;;22.60;89.60;;;;;;4956320;29;20230;-72
2022/05/12 15:19:33;;;;;;;0.52;0.40;;;22.70;89.60;;;;;;4956540;28;20663;-72
2022/05/12 15:22:01;;;;;;;2.45;0.52;;;22.60;89.10;;;;;;4956428;29;20204;-71
2022/05/12 15:24:28;;;;;;;2.53;0.50;;;22.40;90.00;;;;;;4956402;29;20686;-71
2022/05/12 15:26:56;;;;;;;3.15;0.70;;;22.20;89.10;;;;;;4956286;28;20259;-71
2022/05/12 15:29:24;;;;;;;1.67;0.50;;;22.50;89.50;;;;;;4956213;29;20211;-71
2022/05/12 15:31:50;;;;;;;0.65;0.50;;;22.50;89.40;;;;;;4955854;28;20212;-71
2022/05/12 15:34:17;;;;;;;0.75;0.45;;;22.40;90.00;;;;;;4956237;29;20230;-71
2022/05/12 15:36:46;;;;;;;2.05;0.55;;;22.50;90.10;;;;;;4956369;29;20212;-71
2022/05/12 15:39:16;;;;;;;3.72;0.40;;;22.40;89.70;;;;;;4955983;29;20731;-71
2022/05/12 15:41:45;;;;;;;4.50;0.63;;;22.50;87.60;;;;;;4955901;29;20667;-71
2022/05/12 15:44:13;;;;;;;2.05;0.50;;;22.60;88.80;;;;;;4955911;29;20227;-71
2022/05/12 15:46:43;;;;;;;1.60;0.55;;;22.20;88.90;;;;;;4955809;29;20312;-71
2022/05/12 15:49:16;;;;;;;2.88;0.45;;;22.40;88.80;;;;;;4955816;29;20244;-71
2022/05/12 15:51:43;;;;;;;1.15;0.68;;;22.40;89.20;;;;;;4955825;29;20211;-71
2022/05/12 15:54:10;;;;;;;1.75;0.40;;;22.40;89.00;;;;;;4955736;29;20219;-71
2022/05/12 15:56:37;;;;;;;2.58;0.52;;;22.30;87.60;;;;;;4955836;29;20278;-71
2022/05/12 15:59:04;;;;;;;1.60;0.45;;;22.30;87.30;;;;;;4955539;29;20235;-72
2022/05/12 16:01:31;;;;;;;1.92;0.50;;;22.40;88.10;;;;;;4955448;29;20223;-71
2022/05/12 16:03:59;;;;;;;1.73;0.80;;;22.50;88.20;;;;;;4955843;29;20219;-71
2022/05/12 16:06:26;;;;;;;3.30;0.70;;;22.60;88.70;;;;;;4955739;29;20316;-71
2022/05/12 16:08:53;;;;;;;0.93;0.40;;;22.60;86.90;;;;;;4955434;29;20295;-73
2022/05/12 16:11:26;;;;;;;5.25;0.90;;;22.60;85.90;;;;;;4941182;29;20214;-70
2022/05/12 16:13:53;;;;;;;3.35;0.43;;;22.40;86.60;;;;;;4945675;29;20295;-71
2022/05/12 16:16:20;;;;;;;2.35;0.50;;;22.00;86.60;;;;;;4947181;29;20315;-71
2022/05/12 16:18:48;;;;;;;1.35;0.40;;;21.90;88.00;;;;;;4946692;28;20892;-71
2022/05/12 16:21:16;;;;;;;1.80;0.60;;;21.90;88.40;;;;;;4949028;29;20246;-71
2022/05/12 16:23:43;;;;;;;1.60;0.60;;;21.70;87.70;;;;;;4946007;29;20629;-71
2022/05/12 16:26:12;;;;;;;2.05;0.47;;;21.80;87.60;;;;;;4946396;29;20255;-71
2022/05/12 16:28:42;;;;;;;1.52;0.50;;;21.80;88.20;;;;;;4936097;29;20251;-71
2022/05/12 16:31:12;;;;;;;1.60;0.60;;;21.90;86.60;;;;;;4946796;29;20559;-71
2022/05/12 16:33:39;;;;;;;2.97;0.65;;;22.00;86.80;;;;;;4954954;29;20208;-71
2022/05/12 16:36:07;;;;;;;3.70;0.50;;;22.10;86.90;;;;;;4954929;29;20215;-71
2022/05/12 16:38:37;;;;;;;1.55;0.50;;;22.00;86.50;;;;;;4951761;28;20255;-75
2022/05/12 16:41:04;;;;;;;0.63;0.40;;;22.00;85.50;;;;;;4954691;28;20215;-74
2022/05/12 16:43:31;;;;;;;5.35;0.63;;;22.00;86.60;;;;;;4954759;29;20566;-71
2022/05/12 16:45:58;;;;;;;3.55;0.52;;;21.90;87.60;;;;;;4956319;28;20216;-72
2022/05/12 16:48:25;;;;;;;0.50;0.40;;;21.80;86.50;;;;;;4954440;28;20247;-72
2022/05/12 16:50:54;;;;;;;1.70;0.40;;;21.60;86.80;;;;;;4954702;29;20208;-71
2022/05/12 16:53:23;;;;;;;1.67;0.50;;;21.60;86.80;;;;;;4954606;29;20215;-71
2022/05/12 16:55:52;;;;;;;1.60;0.40;;;21.50;87.30;;;;;;4954893;29;20238;-71
2022/05/12 16:58:19;;;;;;;1.00;0.40;;;21.50;86.90;;;;;;4954268;28;20230;-72
2022/05/12 17:00:47;;;;;;;1.77;0.50;;;21.60;87.00;;;;;;4960064;28;20207;-73
2022/05/12 17:03:14;;;;;;;1.33;0.57;;;21.70;88.00;;;;;;4973822;28;20301;-73
2022/05/12 17:05:41;;;;;;;2.67;0.68;;;21.70;87.40;;;;;;4974049;28;20211;-74
2022/05/12 17:08:08;;;;;;;1.98;0.43;;;21.60;86.70;;;;;;4973274;28;20243;-72
2022/05/12 17:10:37;;;;;;;1.95;0.65;;;21.40;86.60;;;;;;4935348;29;20209;-72
2022/05/12 17:13:05;;;;;;;3.90;0.70;;;21.20;86.70;;;;;;4935284;29;20213;-72
2022/05/12 17:15:32;;;;;;;2.35;0.50;;;20.90;87.80;;;;;;4935605;29;20211;-72
2022/05/12 17:17:59;;;;;;;1.50;0.60;;;20.80;87.90;;;;;;4935209;29;20327;-71
2022/05/12 17:20:27;;;;;;;0.93;0.43;;;20.70;88.20;;;;;;4954084;29;20655;-72
2022/05/12 17:22:54;;;;;;;2.65;0.93;;;20.70;88.80;;;;;;4954295;29;20679;-70
2022/05/12 17:25:21;;;;;;;0.77;0.45;;;20.70;88.10;;;;;;4955557;28;20306;-71
2022/05/12 17:27:49;;;;;;;1.23;0.40;;;20.50;88.40;;;;;;4958100;28;20232;-71
2022/05/12 17:30:21;;;;;;;1.80;0.57;;;20.50;89.70;;;;;;4957979;29;20214;-71
2022/05/12 17:32:48;;;;;;;0.88;0.50;;;20.30;90.10;;;;;;4958075;29;20655;-71
2022/05/12 17:35:15;;;;;;;2.30;0.75;;;20.30;90.20;;;;;;4958325;28;20223;-71
2022/05/12 17:37:43;;;;;;;3.00;0.50;;;20.30;90.20;;;;;;4958125;28;20238;-71
2022/05/12 17:40:13;;;;;;;1.42;0.43;;;20.40;90.00;;;;;;4958118;29;20204;-71
2022/05/12 17:42:41;;;;;;;2.05;0.50;;;20.50;89.20;;;;;;4957952;28;20663;-71
2022/05/12 17:45:09;;;;;;;2.35;0.50;;;20.60;89.40;;;;;;4957950;29;20204;-70
2022/05/12 17:47:37;;;;;;;1.67;0.47;;;20.50;90.40;;;;;;4957607;28;20238;-71
2022/05/12 17:50:06;;;;;;;0.52;0.30;;;20.40;88.80;;;;;;4958266;29;20218;-71
2022/05/12 17:52:33;;;;;;;1.50;0.70;;;20.40;88.80;;;;;;4957649;29;20575;-70
2022/05/12 17:55:00;;;;;;;2.97;1.05;;;20.30;89.30;;;;;;4957782;29;20204;-71
2022/05/12 17:57:27;;;;;;;0.60;0.40;;;20.30;89.30;;;;;;4957298;28;20290;-71
2022/05/12 17:59:54;;;;;;;2.15;0.40;;;20.40;90.30;;;;;;4957058;29;20211;-70
2022/05/12 18:02:21;;;;;;;2.40;0.30;;;20.30;89.90;;;;;;4957324;29;20241;-70
2022/05/12 18:04:49;;;;;;;1.38;0.40;;;20.20;90.30;;;;;;4957659;29;20212;-71
2022/05/12 18:07:17;;;;;;;0.77;0.30;;;20.10;90.10;;;;;;4957476;28;20228;-71
2022/05/12 18:09:44;;;;;;;2.17;0.50;;;20.10;90.30;;;;;;4957373;29;20267;-71
2022/05/12 18:12:11;;;;;;;1.85;0.85;;;20.10;90.70;;;;;;4957302;29;20220;-71
2022/05/12 18:14:39;;;;;;;1.52;0.40;;;20.10;90.40;;;;;;4957005;29;20208;-71
2022/05/12 18:17:06;;;;;;;1.77;0.70;;;20.00;90.30;;;;;;4956904;28;20587;-70
2022/05/12 18:19:33;;;;;;;2.93;0.60;;;19.80;90.40;;;;;;4956961;28;20219;-70
2022/05/12 18:22:01;;;;;;;0.97;0.30;;;19.70;90.60;;;;;;4957015;29;20208;-75
2022/05/12 18:24:28;;;;;;;3.10;0.60;;;19.60;90.50;;;;;;4949937;28;20294;-73
2022/05/12 18:26:55;;;;;;;1.57;0.43;;;19.60;90.60;;;;;;4957342;28;20299;-76
2022/05/12 18:29:23;;;;;;;1.97;0.50;;;19.40;90.90;;;;;;4957268;29;20232;-75
2022/05/12 18:31:52;;;;;;;2.20;0.30;;;19.30;90.90;;;;;;4957163;29;20240;-74
2022/05/12 18:34:19;;;;;;;2.00;0.37;;;19.30;90.80;;;;;;4957400;29;20295;-76
2022/05/12 18:36:46;;;;;;;0.70;0.40;;;19.20;91.20;;;;;;4956743;28;20675;-76
2022/05/12 18:39:14;;;;;;;1.40;0.30;;;19.10;90.70;;;;;;4957165;28;20232;-74
2022/05/12 18:41:41;;;;;;;2.50;0.83;;;19.10;90.80;;;;;;4957237;29;20218;-74
2022/05/12 18:44:08;;;;;;;2.20;0.40;;;18.90;90.30;;;;;;4957317;29;20212;-75
2022/05/12 18:46:38;;;;;;;1.33;0.30;;;18.70;90.50;;;;;;4956855;29;20250;-76
2022/05/12 18:49:05;;;;;;;4.43;0.77;;;18.70;90.40;;;;;;4956867;28;20591;-74
2022/05/12 18:51:32;;;;;;;1.03;0.40;;;18.60;90.20;;;;;;4957109;29;20220;-76
2022/05/12 18:53:58;;;;;;;1.50;0.63;;;18.50;90.10;;;;;;4956863;29;20203;-73
2022/05/12 18:56:27;;;;;;;3.07;0.37;;;18.60;90.50;;;;;;4957022;29;20204;-73
2022/05/12 18:58:53;;;;;;;2.20;0.40;;;18.40;89.40;;;;;;4956751;28;20228;-75
2022/05/12 19:01:20;;;;;;;3.27;0.60;;;18.40;89.30;;;;;;4956425;29;20216;-75
2022/05/12 19:03:47;;;;;;;2.27;0.70;;;18.30;90.10;;;;;;4956621;29;20204;-76
2022/05/12 19:06:14;;;;;;;1.33;0.30;;;18.20;89.60;;;;;;4956871;29;20219;-75
2022/05/12 19:08:43;;;;;;;1.73;0.83;;;18.10;89.60;;;;;;4956379;28;20651;-74
2022/05/12 19:11:09;;;;;;;1.40;0.30;;;18.00;90.00;;;;;;4956421;29;20218;-75
2022/05/12 19:13:39;;;;;;;1.33;0.40;;;18.00;90.10;;;;;;4956562;29;20214;-68
2022/05/12 19:16:06;;;;;;;1.90;0.40;;;17.80;90.70;;;;;;4956444;29;20216;-68
2022/05/12 19:18:34;;;;;;;1.90;0.50;;;17.80;90.40;;;;;;4956222;28;20231;-68
2022/05/12 19:21:03;;;;;;;4.17;0.40;;;17.80;90.60;;;;;;4956273;29;20595;-68
2022/05/12 19:23:30;;;;;;;2.00;0.50;;;17.90;91.00;;;;;;4956504;29;20556;-68
2022/05/12 19:25:57;;;;;;;1.80;0.57;;;17.80;90.60;;;;;;4956584;29;20210;-76
2022/05/12 19:28:24;;;;;;;0.57;0.30;;;17.80;90.80;;;;;;4956164;28;20235;-72
2022/05/12 19:30:53;;;;;;;1.20;0.40;;;17.70;91.10;;;;;;4956195;29;20216;-75
2022/05/12 19:33:21;;;;;;;0.30;0.30;;;17.50;91.20;;;;;;4956024;29;20212;-75
2022/05/12 19:35:48;;;;;;;0.90;0.50;;;17.50;91.30;;;;;;4955954;29;20231;-68
2022/05/12 19:38:15;;;;;;;1.23;0.40;;;17.30;91.50;;;;;;4956049;28;20238;-75
2022/05/12 19:40:45;;;;;;;2.27;0.50;;;17.40;91.60;;;;;;4956090;29;20204;-73
2022/05/12 19:43:12;;;;;;;0.53;0.30;;;17.40;91.60;;;;;;4955859;29;20562;-72
2022/05/12 19:45:42;;;;;;;1.17;0.47;;;17.30;92.00;;;;;;4955715;29;20685;-75
2022/05/12 19:48:10;;;;;;;0.90;0.50;;;17.30;92.20;;;;;;4954491;28;20247;-75
2022/05/12 19:50:37;;;;;;;1.23;0.40;;;17.20;92.70;;;;;;4955049;29;20544;-76
2022/05/12 19:53:04;;;;;;;2.60;0.40;;;17.20;92.40;;;;;;4955222;29;20216;-74
2022/05/12 19:55:31;;;;;;;3.73;0.60;;;17.20;92.60;;;;;;4955870;29;20219;-75
2022/05/12 19:57:58;;;;;;;2.00;0.60;;;17.10;93.00;;;;;;4955978;28;20575;-71
2022/05/12 20:00:29;;;;;;;1.90;0.40;;;17.10;93.20;;;;;;4955737;29;20211;-74
2022/05/12 20:02:56;;;;;;;1.67;0.40;;;17.10;93.40;;;;;;4955551;28;20749;-74
2022/05/12 20:05:25;;;;;;;1.73;0.40;;;17.10;93.20;;;;;;4955788;29;20214;-70
2022/05/12 20:07:53;;;;;;;1.00;0.40;;;17.10;93.20;;;;;;4955514;28;20225;-71
2022/05/12 20:10:20;;;;;;;2.73;0.70;;;17.00;92.90;;;;;;4955459;29;20257;-74
2022/05/12 20:12:47;;;;;;;0.60;0.30;;;16.90;92.50;;;;;;4955240;29;20215;-76
2022/05/12 20:15:15;;;;;;;2.50;0.57;;;16.90;92.60;;;;;;4955452;29;20216;-68
2022/05/12 20:17:43;;;;;;;3.13;0.67;;;16.80;92.60;;;;;;4955177;28;20228;-72
2022/05/12 20:20:12;;;;;;;2.90;0.50;;;16.80;92.70;;;;;;4955327;29;20571;-77
2022/05/12 20:22:40;;;;;;;0.47;0.37;;;16.70;92.70;;;;;;4955789;29;20214;-70
2022/05/12 20:25:08;;;;;;;0.80;0.33;;;16.60;92.60;;;;;;4955321;29;20204;-68
2022/05/12 20:27:35;;;;;;;2.33;0.40;;;16.60;92.40;;;;;;4955103;28;20227;-69
2022/05/12 20:30:04;;;;;;;0.67;0.20;;;16.70;92.60;;;;;;4955604;29;20243;-68
2022/05/12 20:32:32;;;;;;;2.27;0.37;;;16.70;92.50;;;;;;4955404;28;20537;-69
2022/05/12 20:34:59;;;;;;;0.97;0.50;;;16.60;92.70;;;;;;4955332;29;20215;-75
2022/05/12 20:37:26;;;;;;;1.37;0.40;;;16.60;92.70;;;;;;4946878;28;20295;-69
2022/05/12 20:39:56;;;;;;;4.03;0.60;;;16.50;92.90;;;;;;4942877;29;20215;-69
2022/05/12 20:42:23;;;;;;;0.97;0.40;;;16.50;92.80;;;;;;4954419;29;20211;-77
2022/05/12 20:44:50;;;;;;;1.07;0.50;;;16.40;92.80;;;;;;4954736;28;20215;-76
2022/05/12 20:47:17;;;;;;;1.97;0.30;;;16.40;92.70;;;;;;4940612;29;20600;-76
2022/05/12 20:49:44;;;;;;;5.40;0.47;;;16.30;92.90;;;;;;4951202;29;20235;-77
2022/05/12 20:52:10;;;;;;;3.73;0.40;;;16.30;93.00;;;;;;4940075;29;20210;-76
2022/05/12 20:54:37;;;;;;;2.70;0.40;;;16.20;92.80;;;;;;4945910;29;20239;-72
2022/05/12 20:57:09;;;;;;;1.37;0.80;;;16.20;92.80;;;;;;4952834;28;20211;-73
2022/05/12 20:59:39;;;;;;;2.03;0.30;;;16.20;93.00;;;;;;4938348;29;20694;-73
2022/05/12 21:02:06;;;;;;;2.53;0.30;;;16.10;92.60;;;;;;4953899;28;20267;-71
2022/05/12 21:04:34;;;;;;;1.40;0.50;;;16.00;92.40;;;;;;4947272;29;20203;-72
2022/05/12 21:07:01;;;;;;;2.73;0.50;;;16.00;92.00;;;;;;4946658;29;20209;-74
2022/05/12 21:09:28;;;;;;;1.10;0.20;;;15.80;92.20;;;;;;4954112;29;20232;-76
2022/05/12 21:11:54;;;;;;;1.57;0.30;;;15.70;92.20;;;;;;4944870;29;20200;-74
2022/05/12 21:14:23;;;;;;;0.53;0.30;;;15.70;92.30;;;;;;4957952;29;20212;-72
2022/05/12 21:16:54;;;;;;;2.03;0.50;;;15.60;92.10;;;;;;4957200;29;20299;-70
2022/05/12 21:19:21;;;;;;;1.57;0.33;;;15.60;91.90;;;;;;4958272;29;20231;-68
2022/05/12 21:21:48;;;;;;;2.40;0.50;;;15.60;92.00;;;;;;4941964;29;20284;-68
2022/05/12 21:24:15;;;;;;;1.80;0.77;;;15.50;92.00;;;;;;4952512;29;20660;-69
2022/05/12 21:26:42;;;;;;;0.80;0.30;;;15.50;91.90;;;;;;4947751;29;20203;-72
2022/05/12 21:29:08;;;;;;;0.97;0.30;;;15.30;92.20;;;;;;4955770;28;20239;-72
2022/05/12 21:31:37;;;;;;;4.37;0.30;;;15.30;92.10;;;;;;4957385;29;20212;-72
2022/05/12 21:34:03;;;;;;;1.17;0.27;;;15.30;92.60;;;;;;4939684;29;20207;-70
2022/05/12 21:36:30;;;;;;;1.30;0.33;;;15.20;92.60;;;;;;4950431;29;20204;-74
2022/05/12 21:38:57;;;;;;;1.43;0.30;;;15.20;92.60;;;;;;4948591;28;20238;-70
2022/05/12 21:41:24;;;;;;;4.50;0.27;;;15.10;92.70;;;;;;4941695;29;20204;-76
2022/05/12 21:43:50;;;;;;;1.50;0.30;;;15.10;92.80;;;;;;4958208;29;20208;-73
2022/05/12 21:46:17;;;;;;;2.30;0.83;;;15.10;93.20;;;;;;4958102;29;20675;-75
2022/05/12 21:48:45;;;;;;;0.40;0.23;;;15.10;92.80;;;;;;4957957;28;20587;-73
2022/05/12 21:51:15;;;;;;;0.30;0.20;;;15.00;92.80;;;;;;4958358;28;20212;-74
2022/05/12 21:53:45;;;;;;;1.70;0.50;;;15.10;93.40;;;;;;4958117;29;20619;-74
2022/05/12 21:56:14;;;;;;;1.50;0.40;;;15.00;93.30;;;;;;4957973;29;20267;-75
2022/05/12 22:01:29;;;;;;;0.70;0.23;;;14.90;93.70;;;;;;4957516;29;20263;-76
